createdAt,value
2018-04-29T00:02:27.730Z,101283.95
2018-04-29T00:04:56.033Z,101291.34
2018-04-29T00:07:24.325Z,101284.42
2018-04-29T00:09:52.648Z,101283.60
2018-04-29T00:12:20.946Z,101288.45
2018-04-29T00:14:49.256Z,101283.27
2018-04-29T00:17:17.557Z,101276.48
2018-04-29T00:19:46.717Z,101274.88
2018-04-29T00:22:15.002Z,101271.80
2018-04-29T00:24:43.324Z,101273.72
2018-04-29T00:27:12.386Z,101280.84
2018-04-29T00:29:40.698Z,101281.33
2018-04-29T00:32:09.850Z,101279.72
2018-04-29T00:34:38.204Z,101278.73
2018-04-29T00:37:06.555Z,101282.09
2018-04-29T00:39:34.894Z,101282.47
2018-04-29T00:42:03.196Z,101274.70
2018-04-29T00:44:31.590Z,101260.47
2018-04-29T00:47:00.370Z,101257.44
2018-04-29T00:49:28.690Z,101255.88
2018-04-29T00:52:07.578Z,101260.98
2018-04-29T00:54:35.882Z,101250.30
2018-04-29T00:57:04.955Z,101253.97
2018-04-29T00:59:33.276Z,101256.15
2018-04-29T01:02:01.588Z,101261.34
2018-04-29T01:04:29.896Z,101267.05
2018-04-29T01:06:58.212Z,101268.11
2018-04-29T01:09:27.283Z,101274.38
2018-04-29T01:11:56.362Z,101280.13
2018-04-29T01:14:24.670Z,101285.28
2018-04-29T01:16:54.416Z,101280.87
2018-04-29T01:19:22.725Z,101280.27
2018-04-29T01:21:51.023Z,101268.50
2018-04-29T01:24:19.335Z,101262.70
2018-04-29T01:26:47.689Z,101255.72
2018-04-29T01:29:15.999Z,101256.41
2018-04-29T01:31:44.343Z,101259.16
2018-04-29T01:34:12.639Z,101251.44
2018-04-29T01:36:40.951Z,101254.06
2018-04-29T01:39:10.017Z,101256.30
2018-04-29T01:41:38.324Z,101251.42
2018-04-29T01:44:07.393Z,101249.44
2018-04-29T01:46:35.761Z,101260.94
2018-04-29T01:49:04.052Z,101251.92
2018-04-29T01:51:32.388Z,101224.75
2018-04-29T01:54:00.702Z,101227.84
2018-04-29T01:56:29.144Z,101249.58
2018-04-29T01:58:58.217Z,101243.42
2018-04-29T02:01:26.504Z,101242.50
2018-04-29T02:03:55.584Z,101244.39
2018-04-29T02:06:23.874Z,101240.30
2018-04-29T02:08:52.938Z,101236.39
2018-04-29T02:11:21.304Z,101226.45
2018-04-29T02:13:50.250Z,101236.13
2018-04-29T02:16:19.310Z,101232.27
2018-04-29T02:18:47.608Z,101220.72
2018-04-29T02:21:15.932Z,101222.39
2018-04-29T02:23:45.006Z,101229.20
2018-04-29T02:26:13.310Z,101241.23
2018-04-29T02:28:42.374Z,101226.98
2018-04-29T02:31:10.678Z,101210.92
2018-04-29T02:33:38.985Z,101198.32
2018-04-29T02:36:07.306Z,101209.92
2018-04-29T02:38:35.904Z,101209.45
2018-04-29T02:41:04.204Z,101215.53
2018-04-29T02:43:33.294Z,101205.92
2018-04-29T02:46:03.128Z,101204.35
2018-04-29T02:48:31.447Z,101194.75
2018-04-29T02:50:59.761Z,101189.45
2018-04-29T02:53:28.077Z,101195.29
2018-04-29T02:55:57.147Z,101199.94
2018-04-29T02:58:25.472Z,101202.28
2018-04-29T03:00:54.553Z,101206.88
2018-04-29T03:03:23.624Z,101202.14
2018-04-29T03:05:52.104Z,101203.05
2018-04-29T03:08:20.400Z,101199.28
2018-04-29T03:10:48.724Z,101201.48
2018-04-29T03:13:17.729Z,101190.00
2018-04-29T03:15:46.039Z,101164.77
2018-04-29T03:18:14.354Z,101171.66
2018-04-29T03:20:43.416Z,101186.88
2018-04-29T03:23:11.728Z,101201.17
2018-04-29T03:25:40.870Z,101200.39
2018-04-29T03:28:09.165Z,101196.72
2018-04-29T03:30:37.463Z,101188.12
2018-04-29T03:33:05.780Z,101193.17
2018-04-29T03:35:34.946Z,101196.58
2018-04-29T03:38:03.244Z,101187.66
2018-04-29T03:40:33.160Z,101192.07
2018-04-29T03:43:03.130Z,101193.50
2018-04-29T03:45:31.434Z,101192.13
2018-04-29T03:47:59.783Z,101196.81
2018-04-29T03:50:28.765Z,101202.05
2018-04-29T03:52:58.594Z,101218.14
2018-04-29T03:55:27.177Z,101219.14
2018-04-29T03:58:14.646Z,101215.74
2018-04-29T04:14:29.074Z,101191.20
2018-04-29T04:16:58.232Z,101177.88
2018-04-29T04:19:32.920Z,101170.28
2018-04-29T04:22:01.276Z,101176.06
2018-04-29T04:24:29.582Z,101178.03
2018-04-29T04:26:58.654Z,101180.89
2018-04-29T04:29:26.958Z,101179.29
2018-04-29T04:31:55.256Z,101188.25
2018-04-29T04:34:24.329Z,101189.77
2018-04-29T04:36:52.628Z,101186.20
2018-04-29T04:39:21.700Z,101189.55
2018-04-29T04:41:50.002Z,101187.50
2018-04-29T04:44:19.112Z,101193.66
2018-04-29T04:46:48.272Z,101192.74
2018-04-29T04:49:16.582Z,101199.41
2018-04-29T04:51:45.783Z,101195.13
2018-04-29T04:54:14.883Z,101199.45
2018-04-29T04:56:44.019Z,101187.69
2018-04-29T04:59:12.314Z,101192.97
2018-04-29T05:01:40.609Z,101185.22
2018-04-29T05:04:09.044Z,101187.05
2018-04-29T05:06:37.353Z,101199.11
2018-04-29T05:09:06.511Z,101200.76
2018-04-29T05:11:35.721Z,101207.52
2018-04-29T05:14:04.800Z,101210.37
2018-04-29T05:16:33.115Z,101223.11
2018-04-29T05:19:01.566Z,101231.02
2018-04-29T05:21:30.649Z,101234.51
2018-04-29T05:23:58.983Z,101234.02
2018-04-29T05:26:27.279Z,101235.84
2018-04-29T05:29:04.577Z,101238.91
2018-04-29T05:31:35.379Z,101249.37
2018-04-29T05:34:04.986Z,101257.35
2018-04-29T05:36:33.681Z,101256.11
2018-04-29T05:39:02.002Z,101254.44
2018-04-29T05:41:31.303Z,101270.15
2018-04-29T05:43:59.595Z,101272.55
2018-04-29T05:46:27.912Z,101271.48
2018-04-29T05:48:57.127Z,101272.38
2018-04-29T05:51:25.444Z,101278.53
2018-04-29T05:53:53.759Z,101273.14
2018-04-29T05:56:22.078Z,101270.30
2018-04-29T05:58:50.550Z,101276.88
2018-04-29T06:01:19.663Z,101269.05
2018-04-29T06:03:47.975Z,101263.58
2018-04-29T06:06:16.301Z,101255.61
2018-04-29T06:08:45.393Z,101253.06
2018-04-29T06:11:14.467Z,101246.81
2018-04-29T06:13:42.794Z,101244.09
2018-04-29T06:16:11.095Z,101240.09
2018-04-29T06:18:39.433Z,101229.66
2018-04-29T06:21:07.740Z,101227.91
2018-04-29T06:23:36.083Z,101223.97
2018-04-29T06:26:05.317Z,101219.53
2018-04-29T06:28:33.486Z,101217.86
2018-04-29T06:31:02.547Z,101218.34
2018-04-29T06:33:30.870Z,101224.00
2018-04-29T06:35:59.976Z,101222.47
2018-04-29T06:38:28.302Z,101216.44
2018-04-29T06:40:56.786Z,101206.03
2018-04-29T06:43:25.106Z,101198.58
2018-04-29T06:45:53.428Z,101189.34
2018-04-29T06:48:21.740Z,101194.70
2018-04-29T06:50:50.048Z,101202.13
2018-04-29T06:53:19.134Z,101205.77
2018-04-29T06:55:47.459Z,101209.69
2018-04-29T06:58:15.774Z,101203.01
2018-04-29T07:00:44.170Z,101198.23
2018-04-29T07:03:13.510Z,101196.36
2018-04-29T07:05:42.609Z,101190.44
2018-04-29T07:08:11.691Z,101191.83
2018-04-29T07:10:40.837Z,101192.95
2018-04-29T07:13:09.150Z,101187.48
2018-04-29T07:15:37.486Z,101189.91
2018-04-29T07:18:05.820Z,101180.95
2018-04-29T07:20:34.139Z,101185.02
2018-04-29T07:23:02.444Z,101187.23
2018-04-29T07:25:30.756Z,101181.06
2018-04-29T07:27:59.095Z,101189.05
2018-04-29T07:30:27.407Z,101180.27
2018-04-29T07:32:55.739Z,101183.11
2018-04-29T07:35:24.803Z,101182.98
2018-04-29T07:37:53.127Z,101182.50
2018-04-29T07:40:21.449Z,101187.02
2018-04-29T07:42:49.768Z,101176.36
2018-04-29T07:45:18.078Z,101189.25
2018-04-29T07:47:46.469Z,101174.95
2018-04-29T07:50:14.785Z,101181.55
2018-04-29T07:52:43.098Z,101173.36
2018-04-29T07:55:12.171Z,101171.36
2018-04-29T07:57:40.487Z,101161.64
2018-04-29T08:00:09.568Z,101159.23
2018-04-29T08:02:38.699Z,101159.17
2018-04-29T08:05:07.745Z,101151.02
2018-04-29T08:07:36.043Z,101145.25
2018-04-29T08:10:04.386Z,101148.91
2018-04-29T08:12:32.785Z,101151.60
2018-04-29T08:15:01.107Z,101145.70
2018-04-29T08:17:30.328Z,101141.66
2018-04-29T08:19:58.631Z,101147.20
2018-04-29T08:22:26.935Z,101143.08
2018-04-29T08:24:55.233Z,101151.80
2018-04-29T08:27:23.731Z,101152.31
2018-04-29T08:29:52.809Z,101157.48
2018-04-29T08:32:21.130Z,101144.73
2018-04-29T08:34:49.433Z,101141.06
2018-04-29T08:37:17.747Z,101150.67
2018-04-29T08:39:46.069Z,101162.05
2018-04-29T08:42:14.381Z,101159.57
2018-04-29T08:44:42.798Z,101163.37
2018-04-29T08:47:11.158Z,101156.80
2018-04-29T08:49:39.492Z,101161.43
2018-04-29T08:52:08.592Z,101166.75
2018-04-29T08:54:36.918Z,101176.45
2018-04-29T08:57:05.251Z,101169.25
2018-04-29T08:59:34.466Z,101174.12
2018-04-29T09:02:03.170Z,101186.32
2018-04-29T09:04:31.512Z,101185.85
2018-04-29T09:06:59.832Z,101195.38
2018-04-29T09:09:28.153Z,101192.86
2018-04-29T09:11:56.463Z,101195.19
2018-04-29T09:14:25.533Z,101198.19
2018-04-29T09:16:53.874Z,101195.22
2018-04-29T09:19:22.992Z,101184.67
2018-04-29T09:21:51.294Z,101188.09
2018-04-29T09:24:19.633Z,101185.92
2018-04-29T09:26:47.933Z,101184.68
2018-04-29T09:29:16.315Z,101184.95
2018-04-29T09:31:45.349Z,101183.72
2018-04-29T09:34:13.677Z,101187.80
2018-04-29T09:36:42.030Z,101187.38
2018-04-29T09:39:11.127Z,101183.81
2018-04-29T09:41:40.197Z,101187.36
2018-04-29T09:44:08.491Z,101180.34
2018-04-29T09:46:36.803Z,101183.45
2018-04-29T09:49:05.151Z,101179.05
2018-04-29T09:51:33.479Z,101176.35
2018-04-29T09:54:01.783Z,101170.92
2018-04-29T09:56:30.093Z,101165.86
2018-04-29T09:58:58.396Z,101172.10
2018-04-29T10:01:36.342Z,101168.87
2018-04-29T10:04:04.642Z,101176.31
2018-04-29T10:06:32.964Z,101164.40
2018-04-29T10:09:01.290Z,101154.38
2018-04-29T10:11:29.727Z,101139.04
2018-04-29T10:13:58.056Z,101136.20
2018-04-29T10:16:26.388Z,101134.05
2018-04-29T10:18:55.477Z,101136.20
2018-04-29T10:21:23.788Z,101135.48
2018-04-29T10:23:52.098Z,101138.97
2018-04-29T10:26:20.427Z,101146.25
2018-04-29T10:28:49.541Z,101143.09
2018-04-29T10:31:17.844Z,101143.50
2018-04-29T10:33:46.168Z,101137.66
2018-04-29T10:36:14.608Z,101127.52
2018-04-29T10:38:42.907Z,101133.26
2018-04-29T10:41:11.303Z,101136.25
2018-04-29T10:43:42.336Z,101123.00
2018-04-29T10:46:10.652Z,101127.28
2018-04-29T10:48:38.955Z,101126.73
2018-04-29T10:51:07.312Z,101130.52
2018-04-29T10:53:35.621Z,101131.42
2018-04-29T10:56:03.912Z,101133.72
2018-04-29T10:58:32.226Z,101135.81
2018-04-29T11:01:00.522Z,101127.36
2018-04-29T11:03:29.466Z,101121.70
2018-04-29T11:05:57.795Z,101118.14
2018-04-29T11:08:27.841Z,101119.61
2018-04-29T11:10:56.934Z,101125.39
2018-04-29T11:13:25.410Z,101128.88
2018-04-29T11:15:54.618Z,101119.53
2018-04-29T11:18:22.973Z,101119.02
2018-04-29T11:20:54.227Z,101121.51
2018-04-29T11:23:22.649Z,101110.45
2018-04-29T11:25:50.972Z,101105.41
2018-04-29T11:28:19.285Z,101100.95
2018-04-29T11:30:49.097Z,101102.14
2018-04-29T11:33:17.421Z,101093.91
2018-04-29T11:35:45.726Z,101086.91
2018-04-29T11:38:14.041Z,101079.16
2018-04-29T11:40:42.412Z,101070.87
2018-04-29T11:43:10.724Z,101066.23
2018-04-29T11:45:39.819Z,101047.25
2018-04-29T11:48:08.936Z,101053.09
2018-04-29T11:50:37.250Z,101054.75
2018-04-29T11:53:05.572Z,101051.31
2018-04-29T11:55:33.892Z,101045.18
2018-04-29T11:58:02.212Z,101038.67
2018-04-29T12:00:30.522Z,101044.95
2018-04-29T12:02:59.615Z,101039.01
2018-04-29T12:05:28.136Z,101033.73
2018-04-29T12:07:56.878Z,101028.95
2018-04-29T12:10:25.216Z,101023.31
2018-04-29T12:12:53.536Z,101023.69
2018-04-29T12:15:22.078Z,101012.69
2018-04-29T12:17:50.404Z,101005.33
2018-04-29T12:20:18.709Z,101008.08
2018-04-29T12:22:47.795Z,101004.75
2018-04-29T12:25:16.304Z,100998.26
2018-04-29T12:27:45.423Z,100995.31
2018-04-29T12:30:13.752Z,100997.00
2018-04-29T12:32:42.227Z,100993.26
2018-04-29T12:35:11.480Z,100989.16
2018-04-29T12:37:40.232Z,100978.80
2018-04-29T12:40:08.684Z,100979.72
2018-04-29T12:42:40.592Z,100968.76
2018-04-29T12:45:14.983Z,100958.92
2018-04-29T12:47:43.288Z,100950.61
2018-04-29T12:50:11.613Z,100942.19
2018-04-29T12:52:39.923Z,100942.36
2018-04-29T12:55:08.319Z,100946.88
2018-04-29T12:57:36.618Z,100942.36
2018-04-29T13:00:04.945Z,100934.11
2018-04-29T13:02:33.262Z,100934.49
2018-04-29T13:05:01.561Z,100936.28
2018-04-29T13:07:30.806Z,100929.83
2018-04-29T13:09:59.114Z,100922.19
2018-04-29T13:12:27.452Z,100923.64
2018-04-29T13:14:55.756Z,100919.98
2018-04-29T13:17:24.086Z,100919.72
2018-04-29T13:19:52.417Z,100910.83
2018-04-29T13:22:21.590Z,100895.56
2018-04-29T13:24:50.690Z,100891.49
2018-04-29T13:27:19.781Z,100882.80
2018-04-29T13:29:48.855Z,100888.22
2018-04-29T13:32:17.181Z,100876.94
2018-04-29T13:34:45.515Z,100879.09
2018-04-29T13:37:13.825Z,100875.73
2018-04-29T13:39:42.888Z,100871.59
2018-04-29T13:42:11.192Z,100878.76
2018-04-29T13:44:40.275Z,100868.84
2018-04-29T13:47:08.586Z,100865.16
2018-04-29T13:49:37.784Z,100870.20
2018-04-29T13:52:06.877Z,100870.13
2018-04-29T13:54:35.955Z,100873.31
2018-04-29T13:57:04.258Z,100881.91
2018-04-29T13:59:33.628Z,100867.09
2018-04-29T14:02:01.955Z,100860.36
2018-04-29T14:04:31.634Z,100860.64
2018-04-29T14:06:59.943Z,100863.34
2018-04-29T14:09:29.028Z,100854.66
2018-04-29T14:11:57.334Z,100848.77
2018-04-29T14:14:25.649Z,100849.02
2018-04-29T14:16:53.954Z,100848.45
2018-04-29T14:19:22.271Z,100840.89
2018-04-29T14:21:51.342Z,100841.88
2018-04-29T14:24:19.644Z,100837.66
2018-04-29T14:26:48.731Z,100833.02
2018-04-29T14:29:17.029Z,100825.87
2018-04-29T14:31:46.144Z,100830.08
2018-04-29T14:34:14.443Z,100821.52
2018-04-29T14:36:42.831Z,100820.14
2018-04-29T14:39:11.856Z,100819.55
2018-04-29T14:41:40.160Z,100816.50
2018-04-29T14:44:09.232Z,100809.00
2018-04-29T14:46:37.570Z,100815.62
2018-04-29T14:49:05.878Z,100816.87
2018-04-29T14:51:34.184Z,100817.89
2018-04-29T14:54:02.503Z,100815.80
2018-04-29T14:56:30.813Z,100812.64
2018-04-29T14:58:59.118Z,100813.56
2018-04-29T15:01:29.078Z,100814.39
2018-04-29T15:03:57.256Z,100818.04
2018-04-29T15:06:25.559Z,100830.77
2018-04-29T15:08:53.881Z,100836.45
2018-04-29T15:11:22.212Z,100809.56
2018-04-29T15:13:50.542Z,100792.66
2018-04-29T15:16:18.845Z,100782.87
2018-04-29T15:18:59.810Z,100773.70
2018-04-29T15:21:28.895Z,100755.32
2018-04-29T15:23:57.206Z,100756.97
2018-04-29T15:26:25.522Z,100755.44
2018-04-29T15:28:53.831Z,100763.34
2018-04-29T15:31:22.300Z,100776.55
2018-04-29T15:33:50.614Z,100789.08
2018-04-29T15:36:19.674Z,100789.79
2018-04-29T15:38:47.977Z,100778.02
2018-04-29T15:41:16.292Z,100780.10
2018-04-29T15:43:45.389Z,100784.90
2018-04-29T15:46:14.464Z,100787.70
2018-04-29T15:48:42.774Z,100785.63
2018-04-29T15:51:11.086Z,100789.77
2018-04-29T15:53:39.402Z,100788.09
2018-04-29T15:56:07.722Z,100783.78
2018-04-29T15:58:36.027Z,100778.66
2018-04-29T16:01:04.344Z,100784.80
2018-04-29T16:03:32.662Z,100773.83
2018-04-29T16:06:00.984Z,100760.66
2018-04-29T16:08:29.302Z,100751.81
2018-04-29T16:10:58.385Z,100768.19
2018-04-29T16:13:27.470Z,100753.63
2018-04-29T16:15:55.768Z,100756.27
2018-04-29T16:18:24.086Z,100757.92
2018-04-29T16:20:52.379Z,100749.49
2018-04-29T16:23:20.691Z,100751.70
2018-04-29T16:25:49.981Z,100764.78
2018-04-29T16:28:18.305Z,100755.73
2018-04-29T16:30:47.371Z,100750.70
2018-04-29T16:33:15.824Z,100750.19
2018-04-29T16:35:48.313Z,100743.63
2018-04-29T16:38:17.595Z,100750.65
2018-04-29T16:40:46.661Z,100751.27
2018-04-29T16:43:14.975Z,100752.44
2018-04-29T16:45:43.302Z,100739.69
2018-04-29T16:48:11.987Z,100752.34
2018-04-29T16:50:40.306Z,100747.20
2018-04-29T16:53:09.388Z,100745.14
2018-04-29T16:55:38.451Z,100771.17
2018-04-29T16:58:06.746Z,100758.34
2018-04-29T17:00:35.044Z,100764.08
2018-04-29T17:03:03.363Z,100755.87
2018-04-29T17:05:31.702Z,100742.52
2018-04-29T17:08:00.030Z,100727.91
2018-04-29T17:10:28.349Z,100723.28
2018-04-29T17:12:56.668Z,100729.97
2018-04-29T17:15:25.927Z,100726.57
2018-04-29T17:17:54.278Z,100721.23
2018-04-29T17:20:22.578Z,100718.66
2018-04-29T17:22:50.895Z,100710.37
2018-04-29T17:25:19.225Z,100708.31
2018-04-29T17:27:47.535Z,100698.34
2018-04-29T17:30:15.864Z,100695.78
2018-04-29T17:32:44.997Z,100695.47
2018-04-29T17:35:13.309Z,100690.95
2018-04-29T17:37:43.144Z,100711.71
2018-04-29T17:40:11.647Z,100706.70
2018-04-29T17:42:39.957Z,100709.59
2018-04-29T17:45:08.293Z,100724.30
2018-04-29T17:47:37.382Z,100715.86
2018-04-29T17:50:06.483Z,100723.67
2018-04-29T17:52:35.173Z,100720.59
2018-04-29T17:55:03.810Z,100729.44
2018-04-29T17:57:32.662Z,100726.45
2018-04-29T18:00:01.896Z,100714.12
2018-04-29T18:02:30.206Z,100707.95
2018-04-29T18:05:05.906Z,100700.86
2018-04-29T18:07:35.168Z,100704.28
2018-04-29T18:10:03.492Z,100708.50
2018-04-29T18:12:32.581Z,100721.00
2018-04-29T18:15:01.642Z,100707.37
2018-04-29T18:17:29.958Z,100726.89
2018-04-29T18:19:58.298Z,100735.02
2018-04-29T18:22:26.598Z,100699.76
2018-04-29T18:24:54.931Z,100729.25
2018-04-29T18:27:23.249Z,100720.00
2018-04-29T18:29:51.570Z,100717.88
2018-04-29T18:32:20.660Z,100714.08
2018-04-29T18:34:48.965Z,100706.98
2018-04-29T18:37:17.256Z,100702.53
2018-04-29T18:39:45.574Z,100710.58
2018-04-29T18:42:13.893Z,100713.45
2018-04-29T18:44:43.043Z,100702.63
2018-04-29T18:47:11.281Z,100702.63
2018-04-29T18:49:40.369Z,100723.73
2018-04-29T18:52:09.522Z,100712.19
2018-04-29T18:54:37.835Z,100707.05
2018-04-29T18:57:06.175Z,100708.83
2018-04-29T18:59:34.488Z,100706.77
2018-04-29T19:02:02.797Z,100704.30
2018-04-29T19:04:31.882Z,100701.84
2018-04-29T19:07:00.181Z,100709.33
2018-04-29T19:09:29.261Z,100717.76
2018-04-29T19:11:57.581Z,100717.45
2018-04-29T19:14:25.883Z,100704.70
2018-04-29T19:16:54.177Z,100713.13
2018-04-29T19:19:22.488Z,100696.80
2018-04-29T19:21:51.554Z,100709.95
2018-04-29T19:24:19.990Z,100718.47
2018-04-29T19:26:48.308Z,100727.42
2018-04-29T19:29:16.858Z,100727.22
2018-04-29T19:31:45.173Z,100724.64
2018-04-29T19:34:13.487Z,100717.55
2018-04-29T19:36:42.572Z,100695.87
2018-04-29T19:39:10.871Z,100694.44
2018-04-29T19:41:39.177Z,100697.00
2018-04-29T19:44:07.481Z,100690.53
2018-04-29T19:46:35.791Z,100703.06
2018-04-29T19:49:04.284Z,100705.22
2018-04-29T19:51:33.037Z,100705.14
2018-04-29T19:54:01.413Z,100704.63
2018-04-29T19:56:29.718Z,100707.20
2018-04-29T19:58:58.077Z,100703.49
2018-04-29T20:01:26.458Z,100696.40
2018-04-29T20:03:54.696Z,100687.36
2018-04-29T20:06:23.529Z,100684.72
2018-04-29T20:08:52.746Z,100692.50
2018-04-29T20:11:22.702Z,100694.26
2018-04-29T20:13:52.464Z,100701.97
2018-04-29T20:16:20.786Z,100704.20
2018-04-29T20:18:49.487Z,100706.27
2018-04-29T20:21:19.352Z,100705.45
2018-04-29T20:23:47.704Z,100722.69
2018-04-29T20:26:16.002Z,100722.28
2018-04-29T20:28:44.402Z,100724.95
2018-04-29T20:31:12.813Z,100757.56
2018-04-29T20:33:41.147Z,100768.86
2018-04-29T20:36:09.465Z,100776.55
2018-04-29T20:38:37.793Z,100784.23
2018-04-29T20:41:06.870Z,100785.05
2018-04-29T20:43:35.942Z,100802.09
2018-04-29T20:46:04.312Z,100799.84
2018-04-29T20:48:32.644Z,100803.31
2018-04-29T20:51:00.974Z,100793.92
2018-04-29T20:53:29.511Z,100777.07
2018-04-29T20:55:59.187Z,100768.91
2018-04-29T20:58:27.507Z,100765.45
2018-04-29T21:00:56.586Z,100749.84
2018-04-29T21:03:24.886Z,100734.02
2018-04-29T21:05:54.135Z,100712.06
2018-04-29T21:08:22.462Z,100675.45
2018-04-29T21:10:51.529Z,100654.03
2018-04-29T21:13:19.837Z,100632.08
2018-04-29T21:15:48.910Z,100626.13
2018-04-29T21:18:17.220Z,100629.50
2018-04-29T21:20:45.529Z,100611.34
2018-04-29T21:23:13.822Z,100611.25
2018-04-29T21:25:42.143Z,100613.41
2018-04-29T21:28:10.460Z,100612.56
2018-04-29T21:30:39.525Z,100614.19
2018-04-29T21:33:07.824Z,100616.70
2018-04-29T21:35:36.126Z,100611.67
2018-04-29T21:38:04.513Z,100592.30
2018-04-29T21:40:32.746Z,100595.19
2018-04-29T21:43:01.032Z,100569.66
2018-04-29T21:45:29.325Z,100554.77
2018-04-29T21:47:57.643Z,100564.52
2018-04-29T21:50:25.962Z,100559.98
2018-04-29T21:52:54.274Z,100552.97
2018-04-29T21:55:23.414Z,100546.19
2018-04-29T21:57:51.714Z,100537.27
2018-04-29T22:00:20.001Z,100533.79
2018-04-29T22:02:48.304Z,100529.48
